sensor_id;sensor_type;location;lat;lon;timestamp;pressure;altitude;pressure_sealevel;temperature;humidity
47913;BME280;33676;51.006;17.180;2022-11-15T00:01:22;100398.86;;;3.70;100.00
47913;BME280;33676;51.006;17.180;2022-11-15T00:03:51;100392.87;;;3.65;100.00
47913;BME280;33676;51.006;17.180;2022-11-15T00:06:19;100395.70;;;3.61;100.00
47913;BME280;33676;51.006;17.180;2022-11-15T00:08:48;100391.63;;;3.59;100.00
47913;BME280;33676;51.006;17.180;2022-11-15T00:11:16;100384.81;;;3.57;100.00
47913;BME280;33676;51.006;17.180;2022-11-15T00:13:45;100380.23;;;3.55;100.00
47913;BME280;33676;51.006;17.180;2022-11-15T00:16:13;100377.52;;;3.54;100.00
47913;BME280;33676;51.006;17.180;2022-11-15T00:18:42;100371.09;;;3.51;100.00
47913;BME280;33676;51.006;17.180;2022-11-15T00:21:17;100369.66;;;3.48;100.00
47913;BME280;33676;51.006;17.180;2022-11-15T00:23:46;100366.32;;;3.46;100.00
47913;BME280;33676;51.006;17.180;2022-11-15T00:26:15;100362.80;;;3.44;100.00
47913;BME280;33676;51.006;17.180;2022-11-15T00:28:43;100357.70;;;3.42;100.00
47913;BME280;33676;51.006;17.180;2022-11-15T00:31:13;100354.05;;;3.39;100.00
47913;BME280;33676;51.006;17.180;2022-11-15T00:33:44;100349.64;;;3.37;100.00
47913;BME280;33676;51.006;17.180;2022-11-15T00:36:13;100345.19;;;3.36;100.00
47913;BME280;33676;51.006;17.180;2022-11-15T00:38:41;100341.96;;;3.35;100.00
47913;BME280;33676;51.006;17.180;2022-11-15T00:41:10;100341.86;;;3.33;100.00
47913;BME280;33676;51.006;17.180;2022-11-15T00:43:38;100338.56;;;3.34;100.00
47913;BME280;33676;51.006;17.180;2022-11-15T00:46:09;100336.71;;;3.32;100.00
47913;BME280;33676;51.006;17.180;2022-11-15T00:48:38;100338.08;;;3.32;100.00
47913;BME280;33676;51.006;17.180;2022-11-15T00:51:06;100338.78;;;3.32;100.00
47913;BME280;33676;51.006;17.180;2022-11-15T00:53:34;100337.04;;;3.33;100.00
47913;BME280;33676;51.006;17.180;2022-11-15T00:56:03;100339.45;;;3.33;100.00
47913;BME280;33676;51.006;17.180;2022-11-15T00:58:32;100335.48;;;3.33;100.00
47913;BME280;33676;51.006;17.180;2022-11-15T01:01:12;100338.76;;;3.33;100.00
47913;BME280;33676;51.006;17.180;2022-11-15T01:03:41;100332.23;;;3.32;100.00
47913;BME280;33676;51.006;17.180;2022-11-15T01:06:10;100324.80;;;3.32;100.00
47913;BME280;33676;51.006;17.180;2022-11-15T01:08:40;100322.24;;;3.31;100.00
47913;BME280;33676;51.006;17.180;2022-11-15T01:11:11;100320.14;;;3.29;100.00
47913;BME280;33676;51.006;17.180;2022-11-15T01:13:40;100320.45;;;3.26;100.00
47913;BME280;33676;51.006;17.180;2022-11-15T01:16:12;100322.19;;;3.22;100.00
47913;BME280;33676;51.006;17.180;2022-11-15T01:18:41;100316.45;;;3.19;100.00
47913;BME280;33676;51.006;17.180;2022-11-15T01:21:13;100317.27;;;3.16;100.00
47913;BME280;33676;51.006;17.180;2022-11-15T01:23:42;100317.20;;;3.14;100.00
47913;BME280;33676;51.006;17.180;2022-11-15T01:26:14;100321.27;;;3.12;100.00
47913;BME280;33676;51.006;17.180;2022-11-15T01:28:43;100318.59;;;3.11;100.00
47913;BME280;33676;51.006;17.180;2022-11-15T01:31:16;100320.69;;;3.11;100.00
47913;BME280;33676;51.006;17.180;2022-11-15T01:33:46;100314.80;;;3.10;100.00
47913;BME280;33676;51.006;17.180;2022-11-15T01:36:18;100314.13;;;3.10;100.00
47913;BME280;33676;51.006;17.180;2022-11-15T01:38:54;100313.50;;;3.09;100.00
47913;BME280;33676;51.006;17.180;2022-11-15T01:41:28;100307.36;;;3.07;100.00
47913;BME280;33676;51.006;17.180;2022-11-15T01:44:39;100303.51;;;3.05;100.00
47913;BME280;33676;51.006;17.180;2022-11-15T01:47:19;100297.97;;;3.01;100.00
47913;BME280;33676;51.006;17.180;2022-11-15T01:50:02;100294.64;;;2.98;100.00
47913;BME280;33676;51.006;17.180;2022-11-15T01:52:34;100294.38;;;2.96;100.00
47913;BME280;33676;51.006;17.180;2022-11-15T01:55:16;100288.30;;;2.93;100.00
47913;BME280;33676;51.006;17.180;2022-11-15T01:57:51;100283.99;;;2.90;100.00
47913;BME280;33676;51.006;17.180;2022-11-15T02:00:21;100289.09;;;2.88;100.00
47913;BME280;33676;51.006;17.180;2022-11-15T02:02:50;100287.25;;;2.86;100.00
47913;BME280;33676;51.006;17.180;2022-11-15T02:13:51;100272.08;;;2.86;100.00
47913;BME280;33676;51.006;17.180;2022-11-15T02:25:39;100251.89;;;2.86;100.00
47913;BME280;33676;51.006;17.180;2022-11-15T02:34:50;100250.50;;;2.82;100.00
47913;BME280;33676;51.006;17.180;2022-11-15T02:40:28;100247.11;;;2.81;100.00
47913;BME280;33676;51.006;17.180;2022-11-15T02:43:10;100244.57;;;2.80;100.00
47913;BME280;33676;51.006;17.180;2022-11-15T02:49:34;100235.90;;;2.77;100.00
47913;BME280;33676;51.006;17.180;2022-11-15T02:52:05;100233.90;;;2.76;100.00
47913;BME280;33676;51.006;17.180;2022-11-15T02:54:34;100227.73;;;2.75;100.00
47913;BME280;33676;51.006;17.180;2022-11-15T02:57:16;100231.02;;;2.75;100.00
47913;BME280;33676;51.006;17.180;2022-11-15T03:00:01;100226.36;;;2.74;100.00
47913;BME280;33676;51.006;17.180;2022-11-15T03:06:00;100222.46;;;2.73;100.00
47913;BME280;33676;51.006;17.180;2022-11-15T03:08:44;100215.58;;;2.73;100.00
47913;BME280;33676;51.006;17.180;2022-11-15T03:11:18;100219.81;;;2.71;100.00
47913;BME280;33676;51.006;17.180;2022-11-15T03:17:19;100212.55;;;2.67;100.00
47913;BME280;33676;51.006;17.180;2022-11-15T03:19:54;100212.95;;;2.66;100.00
47913;BME280;33676;51.006;17.180;2022-11-15T03:22:26;100213.13;;;2.65;100.00
47913;BME280;33676;51.006;17.180;2022-11-15T03:25:00;100211.99;;;2.64;100.00
47913;BME280;33676;51.006;17.180;2022-11-15T03:27:36;100210.50;;;2.62;100.00
47913;BME280;33676;51.006;17.180;2022-11-15T03:30:08;100215.70;;;2.62;100.00
47913;BME280;33676;51.006;17.180;2022-11-15T03:32:45;100215.27;;;2.60;100.00
47913;BME280;33676;51.006;17.180;2022-11-15T03:35:20;100210.68;;;2.59;100.00
47913;BME280;33676;51.006;17.180;2022-11-15T03:38:05;100208.30;;;2.59;100.00
47913;BME280;33676;51.006;17.180;2022-11-15T03:40:49;100204.55;;;2.57;100.00
47913;BME280;33676;51.006;17.180;2022-11-15T03:43:47;100200.00;;;2.55;100.00
47913;BME280;33676;51.006;17.180;2022-11-15T03:46:27;100196.81;;;2.53;100.00
47913;BME280;33676;51.006;17.180;2022-11-15T03:49:07;100195.88;;;2.51;100.00
47913;BME280;33676;51.006;17.180;2022-11-15T03:51:37;100193.15;;;2.47;100.00
47913;BME280;33676;51.006;17.180;2022-11-15T03:54:06;100191.34;;;2.41;100.00
47913;BME280;33676;51.006;17.180;2022-11-15T03:56:34;100189.96;;;2.37;100.00
47913;BME280;33676;51.006;17.180;2022-11-15T03:59:03;100190.46;;;2.34;100.00
47913;BME280;33676;51.006;17.180;2022-11-15T04:01:31;100191.08;;;2.32;100.00
47913;BME280;33676;51.006;17.180;2022-11-15T04:04:00;100189.27;;;2.30;100.00
47913;BME280;33676;51.006;17.180;2022-11-15T04:06:28;100189.34;;;2.28;100.00
47913;BME280;33676;51.006;17.180;2022-11-15T04:08:57;100187.39;;;2.25;100.00
47913;BME280;33676;51.006;17.180;2022-11-15T04:11:25;100186.80;;;2.24;100.00
47913;BME280;33676;51.006;17.180;2022-11-15T04:13:53;100188.23;;;2.22;100.00
47913;BME280;33676;51.006;17.180;2022-11-15T04:16:22;100185.21;;;2.20;100.00
47913;BME280;33676;51.006;17.180;2022-11-15T04:18:50;100182.02;;;2.18;100.00
47913;BME280;33676;51.006;17.180;2022-11-15T04:21:38;100181.44;;;2.16;100.00
47913;BME280;33676;51.006;17.180;2022-11-15T04:24:25;100180.34;;;2.14;100.00
47913;BME280;33676;51.006;17.180;2022-11-15T04:26:54;100178.17;;;2.12;100.00
47913;BME280;33676;51.006;17.180;2022-11-15T04:29:22;100179.45;;;2.10;100.00
47913;BME280;33676;51.006;17.180;2022-11-15T04:32:05;100180.89;;;2.09;100.00
47913;BME280;33676;51.006;17.180;2022-11-15T04:34:34;100187.23;;;2.07;100.00
47913;BME280;33676;51.006;17.180;2022-11-15T04:37:03;100185.27;;;2.04;100.00
47913;BME280;33676;51.006;17.180;2022-11-15T04:39:41;100185.83;;;2.03;100.00
47913;BME280;33676;51.006;17.180;2022-11-15T04:42:10;100183.88;;;2.01;100.00
47913;BME280;33676;51.006;17.180;2022-11-15T04:44:39;100178.52;;;1.97;100.00
47913;BME280;33676;51.006;17.180;2022-11-15T04:47:07;100176.60;;;1.93;100.00
47913;BME280;33676;51.006;17.180;2022-11-15T04:49:36;100174.96;;;1.91;100.00
47913;BME280;33676;51.006;17.180;2022-11-15T04:52:04;100174.01;;;1.90;100.00
47913;BME280;33676;51.006;17.180;2022-11-15T04:54:33;100171.16;;;1.88;100.00
47913;BME280;33676;51.006;17.180;2022-11-15T04:57:01;100175.45;;;1.88;100.00
47913;BME280;33676;51.006;17.180;2022-11-15T04:59:29;100173.67;;;1.89;100.00
47913;BME280;33676;51.006;17.180;2022-11-15T05:01:58;100176.53;;;1.91;100.00
47913;BME280;33676;51.006;17.180;2022-11-15T05:04:26;100169.39;;;1.93;100.00
47913;BME280;33676;51.006;17.180;2022-11-15T05:06:54;100166.25;;;1.94;100.00
47913;BME280;33676;51.006;17.180;2022-11-15T05:09:23;100159.55;;;1.93;100.00
47913;BME280;33676;51.006;17.180;2022-11-15T05:11:51;100154.74;;;1.92;100.00
47913;BME280;33676;51.006;17.180;2022-11-15T05:14:19;100149.92;;;1.93;100.00
47913;BME280;33676;51.006;17.180;2022-11-15T05:16:48;100148.94;;;1.91;100.00
47913;BME280;33676;51.006;17.180;2022-11-15T05:19:17;100148.64;;;1.90;100.00
47913;BME280;33676;51.006;17.180;2022-11-15T05:21:46;100145.75;;;1.89;100.00
47913;BME280;33676;51.006;17.180;2022-11-15T05:24:15;100146.20;;;1.87;100.00
47913;BME280;33676;51.006;17.180;2022-11-15T05:26:43;100145.92;;;1.86;100.00
47913;BME280;33676;51.006;17.180;2022-11-15T05:29:11;100144.55;;;1.85;100.00
47913;BME280;33676;51.006;17.180;2022-11-15T05:31:40;100147.05;;;1.84;100.00
47913;BME280;33676;51.006;17.180;2022-11-15T05:34:09;100151.19;;;1.83;100.00
47913;BME280;33676;51.006;17.180;2022-11-15T05:36:42;100153.78;;;1.83;100.00
47913;BME280;33676;51.006;17.180;2022-11-15T05:39:11;100152.23;;;1.83;100.00
47913;BME280;33676;51.006;17.180;2022-11-15T05:41:44;100145.54;;;1.82;100.00
47913;BME280;33676;51.006;17.180;2022-11-15T05:44:17;100141.80;;;1.81;100.00
47913;BME280;33676;51.006;17.180;2022-11-15T05:46:48;100142.88;;;1.81;100.00
47913;BME280;33676;51.006;17.180;2022-11-15T05:49:20;100139.04;;;1.78;100.00
47913;BME280;33676;51.006;17.180;2022-11-15T05:51:51;100143.64;;;1.75;100.00
47913;BME280;33676;51.006;17.180;2022-11-15T05:54:21;100147.98;;;1.74;100.00
47913;BME280;33676;51.006;17.180;2022-11-15T05:56:52;100148.09;;;1.76;100.00
47913;BME280;33676;51.006;17.180;2022-11-15T05:59:20;100141.65;;;1.77;100.00
47913;BME280;33676;51.006;17.180;2022-11-15T06:01:49;100139.73;;;1.78;100.00
47913;BME280;33676;51.006;17.180;2022-11-15T06:04:18;100138.48;;;1.79;100.00
47913;BME280;33676;51.006;17.180;2022-11-15T06:06:46;100138.23;;;1.80;100.00
47913;BME280;33676;51.006;17.180;2022-11-15T06:09:14;100142.84;;;1.81;100.00
47913;BME280;33676;51.006;17.180;2022-11-15T06:11:43;100149.47;;;1.83;100.00
47913;BME280;33676;51.006;17.180;2022-11-15T06:14:11;100148.95;;;1.84;100.00
47913;BME280;33676;51.006;17.180;2022-11-15T06:16:39;100155.29;;;1.84;100.00
47913;BME280;33676;51.006;17.180;2022-11-15T06:19:08;100151.31;;;1.85;100.00
47913;BME280;33676;51.006;17.180;2022-11-15T06:21:36;100155.85;;;1.83;100.00
47913;BME280;33676;51.006;17.180;2022-11-15T06:24:05;100156.35;;;1.84;100.00
47913;BME280;33676;51.006;17.180;2022-11-15T06:26:34;100152.84;;;1.85;100.00
47913;BME280;33676;51.006;17.180;2022-11-15T06:29:04;100153.30;;;1.86;100.00
47913;BME280;33676;51.006;17.180;2022-11-15T06:31:34;100160.49;;;1.87;100.00
47913;BME280;33676;51.006;17.180;2022-11-15T06:34:02;100158.23;;;1.88;100.00
47913;BME280;33676;51.006;17.180;2022-11-15T06:36:34;100155.61;;;1.88;100.00
47913;BME280;33676;51.006;17.180;2022-11-15T06:39:05;100156.42;;;1.90;100.00
47913;BME280;33676;51.006;17.180;2022-11-15T06:41:35;100151.55;;;1.91;100.00
47913;BME280;33676;51.006;17.180;2022-11-15T06:44:03;100148.07;;;1.92;100.00
47913;BME280;33676;51.006;17.180;2022-11-15T06:46:32;100148.88;;;1.93;100.00
47913;BME280;33676;51.006;17.180;2022-11-15T06:49:00;100148.09;;;1.95;100.00
47913;BME280;33676;51.006;17.180;2022-11-15T06:51:36;100152.80;;;1.98;100.00
47913;BME280;33676;51.006;17.180;2022-11-15T06:54:05;100155.34;;;2.03;100.00
47913;BME280;33676;51.006;17.180;2022-11-15T06:56:33;100153.60;;;2.06;100.00
47913;BME280;33676;51.006;17.180;2022-11-15T06:59:02;100153.20;;;2.11;100.00
47913;BME280;33676;51.006;17.180;2022-11-15T07:01:30;100155.27;;;2.15;100.00
47913;BME280;33676;51.006;17.180;2022-11-15T07:03:59;100152.46;;;2.20;100.00
47913;BME280;33676;51.006;17.180;2022-11-15T07:06:27;100155.87;;;2.25;100.00
47913;BME280;33676;51.006;17.180;2022-11-15T07:08:55;100150.29;;;2.30;100.00
47913;BME280;33676;51.006;17.180;2022-11-15T07:11:24;100150.39;;;2.35;100.00
47913;BME280;33676;51.006;17.180;2022-11-15T07:13:52;100150.80;;;2.41;100.00
47913;BME280;33676;51.006;17.180;2022-11-15T07:16:20;100156.72;;;2.47;100.00
47913;BME280;33676;51.006;17.180;2022-11-15T07:18:49;100163.48;;;2.54;100.00
47913;BME280;33676;51.006;17.180;2022-11-15T07:21:17;100164.42;;;2.59;100.00
47913;BME280;33676;51.006;17.180;2022-11-15T07:23:51;100167.23;;;2.66;100.00
47913;BME280;33676;51.006;17.180;2022-11-15T07:26:19;100162.97;;;2.72;100.00
47913;BME280;33676;51.006;17.180;2022-11-15T07:28:48;100162.23;;;2.80;100.00
47913;BME280;33676;51.006;17.180;2022-11-15T07:31:16;100161.92;;;2.86;100.00
47913;BME280;33676;51.006;17.180;2022-11-15T07:33:44;100163.48;;;2.94;100.00
47913;BME280;33676;51.006;17.180;2022-11-15T07:36:13;100163.97;;;3.02;100.00
47913;BME280;33676;51.006;17.180;2022-11-15T07:38:41;100168.89;;;3.10;100.00
47913;BME280;33676;51.006;17.180;2022-11-15T07:41:10;100167.92;;;3.18;100.00
47913;BME280;33676;51.006;17.180;2022-11-15T07:43:38;100170.25;;;3.27;100.00
47913;BME280;33676;51.006;17.180;2022-11-15T07:46:08;100161.81;;;3.38;100.00
47913;BME280;33676;51.006;17.180;2022-11-15T07:48:38;100157.36;;;3.47;100.00
47913;BME280;33676;51.006;17.180;2022-11-15T07:51:16;100155.92;;;3.58;100.00
47913;BME280;33676;51.006;17.180;2022-11-15T07:53:45;100158.28;;;3.69;100.00
47913;BME280;33676;51.006;17.180;2022-11-15T07:56:13;100156.04;;;3.79;100.00
47913;BME280;33676;51.006;17.180;2022-11-15T07:58:42;100156.19;;;3.89;100.00
47913;BME280;33676;51.006;17.180;2022-11-15T08:01:10;100162.11;;;4.02;100.00
47913;BME280;33676;51.006;17.180;2022-11-15T08:03:39;100168.18;;;4.14;100.00
47913;BME280;33676;51.006;17.180;2022-11-15T08:06:07;100165.42;;;4.27;100.00
47913;BME280;33676;51.006;17.180;2022-11-15T08:08:35;100163.15;;;4.40;100.00
47913;BME280;33676;51.006;17.180;2022-11-15T08:11:04;100158.96;;;4.53;100.00
47913;BME280;33676;51.006;17.180;2022-11-15T08:13:32;100156.37;;;4.69;100.00
47913;BME280;33676;51.006;17.180;2022-11-15T08:16:02;100149.05;;;4.85;100.00
47913;BME280;33676;51.006;17.180;2022-11-15T08:18:34;100148.27;;;5.05;100.00
47913;BME280;33676;51.006;17.180;2022-11-15T08:21:03;100141.73;;;5.24;100.00
47913;BME280;33676;51.006;17.180;2022-11-15T08:23:32;100135.44;;;5.46;100.00
47913;BME280;33676;51.006;17.180;2022-11-15T08:26:05;100133.95;;;5.68;100.00
47913;BME280;33676;51.006;17.180;2022-11-15T08:28:33;100126.40;;;5.90;100.00
47913;BME280;33676;51.006;17.180;2022-11-15T08:31:03;100127.90;;;6.13;100.00
47913;BME280;33676;51.006;17.180;2022-11-15T08:33:35;100124.55;;;6.39;100.00
47913;BME280;33676;51.006;17.180;2022-11-15T08:36:05;100125.59;;;6.63;100.00
47913;BME280;33676;51.006;17.180;2022-11-15T08:38:33;100131.88;;;6.89;100.00
47913;BME280;33676;51.006;17.180;2022-11-15T08:41:04;100128.06;;;7.13;100.00
47913;BME280;33676;51.006;17.180;2022-11-15T08:43:34;100123.95;;;7.38;100.00
47913;BME280;33676;51.006;17.180;2022-11-15T08:46:02;100121.45;;;7.65;100.00
47913;BME280;33676;51.006;17.180;2022-11-15T08:48:31;100117.73;;;7.90;100.00
47913;BME280;33676;51.006;17.180;2022-11-15T08:51:00;100120.75;;;8.14;100.00
47913;BME280;33676;51.006;17.180;2022-11-15T08:53:28;100115.59;;;8.38;100.00
47913;BME280;33676;51.006;17.180;2022-11-15T08:55:56;100108.66;;;8.62;100.00
47913;BME280;33676;51.006;17.180;2022-11-15T08:58:25;100107.71;;;8.84;100.00
47913;BME280;33676;51.006;17.180;2022-11-15T09:00:54;100107.63;;;9.06;100.00
47913;BME280;33676;51.006;17.180;2022-11-15T09:03:24;100108.27;;;9.30;100.00
47913;BME280;33676;51.006;17.180;2022-11-15T09:05:58;100106.30;;;9.54;100.00
47913;BME280;33676;51.006;17.180;2022-11-15T09:08:30;100102.48;;;9.76;100.00
47913;BME280;33676;51.006;17.180;2022-11-15T09:11:14;100101.70;;;9.99;100.00
47913;BME280;33676;51.006;17.180;2022-11-15T09:13:46;100103.25;;;10.24;100.00
47913;BME280;33676;51.006;17.180;2022-11-15T09:16:14;100108.23;;;10.47;100.00
47913;BME280;33676;51.006;17.180;2022-11-15T09:18:43;100106.73;;;10.70;100.00
47913;BME280;33676;51.006;17.180;2022-11-15T09:21:12;100113.19;;;10.93;100.00
47913;BME280;33676;51.006;17.180;2022-11-15T09:23:41;100109.31;;;11.17;100.00
47913;BME280;33676;51.006;17.180;2022-11-15T09:26:09;100108.58;;;11.38;100.00
47913;BME280;33676;51.006;17.180;2022-11-15T09:28:38;100106.76;;;11.57;100.00
47913;BME280;33676;51.006;17.180;2022-11-15T09:31:10;100106.46;;;11.75;100.00
47913;BME280;33676;51.006;17.180;2022-11-15T09:33:38;100105.53;;;11.94;100.00
47913;BME280;33676;51.006;17.180;2022-11-15T09:36:08;100103.62;;;12.12;100.00
47913;BME280;33676;51.006;17.180;2022-11-15T09:38:37;100097.92;;;12.31;100.00
47913;BME280;33676;51.006;17.180;2022-11-15T09:47:46;100091.17;;;12.98;100.00
47913;BME280;33676;51.006;17.180;2022-11-15T09:50:34;100086.09;;;13.27;100.00
47913;BME280;33676;51.006;17.180;2022-11-15T09:53:05;100084.84;;;13.50;100.00
47913;BME280;33676;51.006;17.180;2022-11-15T09:55:59;100085.77;;;13.66;100.00
47913;BME280;33676;51.006;17.180;2022-11-15T09:59:13;100078.70;;;13.77;100.00
47913;BME280;33676;51.006;17.180;2022-11-15T10:04:32;100067.16;;;14.08;100.00
47913;BME280;33676;51.006;17.180;2022-11-15T10:07:06;100064.26;;;14.22;100.00
47913;BME280;33676;51.006;17.180;2022-11-15T10:12:47;100064.84;;;14.52;100.00
47913;BME280;33676;51.006;17.180;2022-11-15T10:15:18;100059.98;;;14.60;100.00
47913;BME280;33676;51.006;17.180;2022-11-15T10:18:04;100055.46;;;14.70;100.00
47913;BME280;33676;51.006;17.180;2022-11-15T10:20:58;100055.47;;;14.81;100.00
47913;BME280;33676;51.006;17.180;2022-11-15T10:23:28;100053.53;;;14.97;100.00
47913;BME280;33676;51.006;17.180;2022-11-15T10:25:59;100051.55;;;15.12;100.00
47913;BME280;33676;51.006;17.180;2022-11-15T10:37:45;100037.81;;;15.85;99.82
47913;BME280;33676;51.006;17.180;2022-11-15T10:40:23;100029.60;;;15.98;99.70
47913;BME280;33676;51.006;17.180;2022-11-15T10:45:39;100023.83;;;16.34;99.19
47913;BME280;33676;51.006;17.180;2022-11-15T10:50:44;100013.92;;;16.59;98.05
47913;BME280;33676;51.006;17.180;2022-11-15T10:53:24;100007.91;;;16.69;97.38
47913;BME280;33676;51.006;17.180;2022-11-15T10:56:03;100005.98;;;16.77;96.95
47913;BME280;33676;51.006;17.180;2022-11-15T10:58:41;100004.56;;;16.92;96.98
47913;BME280;33676;51.006;17.180;2022-11-15T11:01:17;100004.02;;;17.08;97.09
47913;BME280;33676;51.006;17.180;2022-11-15T11:04:02;100003.14;;;17.23;96.51
47913;BME280;33676;51.006;17.180;2022-11-15T11:06:52;99996.50;;;17.31;95.52
47913;BME280;33676;51.006;17.180;2022-11-15T11:09:34;99987.52;;;17.45;95.29
47913;BME280;33676;51.006;17.180;2022-11-15T11:12:09;99986.45;;;17.57;94.81
47913;BME280;33676;51.006;17.180;2022-11-15T11:14:39;99986.56;;;17.69;94.45
47913;BME280;33676;51.006;17.180;2022-11-15T11:17:32;99981.39;;;17.82;94.21
47913;BME280;33676;51.006;17.180;2022-11-15T11:20:38;99979.60;;;17.95;93.47
47913;BME280;33676;51.006;17.180;2022-11-15T11:31:58;99962.73;;;18.42;91.17
47913;BME280;33676;51.006;17.180;2022-11-15T11:40:44;99957.95;;;18.67;89.48
47913;BME280;33676;51.006;17.180;2022-11-15T11:43:37;99957.13;;;18.72;89.06
47913;BME280;33676;51.006;17.180;2022-11-15T11:49:52;99946.27;;;18.79;87.79
47913;BME280;33676;51.006;17.180;2022-11-15T11:55:16;99933.35;;;18.89;87.17
47913;BME280;33676;51.006;17.180;2022-11-15T12:00:27;99929.25;;;18.97;86.56
47913;BME280;33676;51.006;17.180;2022-11-15T12:05:54;99924.08;;;18.84;85.71
47913;BME280;33676;51.006;17.180;2022-11-15T12:11:37;99920.66;;;18.57;85.44
47913;BME280;33676;51.006;17.180;2022-11-15T12:14:25;99920.05;;;18.31;84.87
47913;BME280;33676;51.006;17.180;2022-11-15T12:16:56;99915.61;;;18.08;85.34
47913;BME280;33676;51.006;17.180;2022-11-15T12:19:26;99912.96;;;17.93;85.50
47913;BME280;33676;51.006;17.180;2022-11-15T12:27:59;99898.81;;;17.56;86.09
47913;BME280;33676;51.006;17.180;2022-11-15T12:33:34;99889.48;;;17.37;86.00
47913;BME280;33676;51.006;17.180;2022-11-15T12:36:35;99885.51;;;17.26;86.21
47913;BME280;33676;51.006;17.180;2022-11-15T12:39:13;99882.52;;;17.18;86.50
47913;BME280;33676;51.006;17.180;2022-11-15T12:47:04;99875.26;;;16.89;86.49
47913;BME280;33676;51.006;17.180;2022-11-15T12:49:51;99870.95;;;16.77;86.75
47913;BME280;33676;51.006;17.180;2022-11-15T12:52:20;99871.52;;;16.71;87.12
47913;BME280;33676;51.006;17.180;2022-11-15T12:54:53;99871.73;;;16.68;87.44
47913;BME280;33676;51.006;17.180;2022-11-15T12:57:29;99873.09;;;16.61;87.18
47913;BME280;33676;51.006;17.180;2022-11-15T13:03:18;99866.63;;;16.45;87.30
47913;BME280;33676;51.006;17.180;2022-11-15T13:05:57;99859.98;;;16.38;87.41
47913;BME280;33676;51.006;17.180;2022-11-15T13:08:46;99853.23;;;16.32;87.24
47913;BME280;33676;51.006;17.180;2022-11-15T13:12:08;99847.77;;;16.24;87.16
47913;BME280;33676;51.006;17.180;2022-11-15T13:17:31;99844.27;;;16.12;87.40
47913;BME280;33676;51.006;17.180;2022-11-15T13:28:47;99844.98;;;15.92;87.81
47913;BME280;33676;51.006;17.180;2022-11-15T13:31:37;99839.16;;;15.90;88.06
47913;BME280;33676;51.006;17.180;2022-11-15T13:34:26;99834.87;;;15.87;88.21
47913;BME280;33676;51.006;17.180;2022-11-15T13:39:50;99837.47;;;15.82;88.62
47913;BME280;33676;51.006;17.180;2022-11-15T13:42:20;99835.64;;;15.78;88.61
47913;BME280;33676;51.006;17.180;2022-11-15T13:45:04;99837.79;;;15.75;88.67
47913;BME280;33676;51.006;17.180;2022-11-15T13:47:33;99834.45;;;15.71;88.49
47913;BME280;33676;51.006;17.180;2022-11-15T13:50:02;99834.01;;;15.69;88.64
47913;BME280;33676;51.006;17.180;2022-11-15T13:52:42;99830.84;;;15.66;88.62
47913;BME280;33676;51.006;17.180;2022-11-15T13:55:20;99829.88;;;15.58;88.69
47913;BME280;33676;51.006;17.180;2022-11-15T13:57:59;99831.36;;;15.59;88.76
47913;BME280;33676;51.006;17.180;2022-11-15T14:00:44;99828.68;;;15.84;89.90
47913;BME280;33676;51.006;17.180;2022-11-15T14:03:22;99832.34;;;16.18;90.44
47913;BME280;33676;51.006;17.180;2022-11-15T14:06:09;99831.48;;;16.49;90.29
47913;BME280;33676;51.006;17.180;2022-11-15T14:09:51;99831.04;;;16.60;89.01
47913;BME280;33676;51.006;17.180;2022-11-15T14:11:55;99825.75;;;16.53;87.84
47913;BME280;33676;51.006;17.180;2022-11-15T14:14:27;99823.33;;;16.43;86.82
47913;BME280;33676;51.006;17.180;2022-11-15T14:17:00;99816.00;;;16.23;86.26
47913;BME280;33676;51.006;17.180;2022-11-15T14:22:22;99810.02;;;15.92;86.42
47913;BME280;33676;51.006;17.180;2022-11-15T14:25:36;99805.94;;;15.76;86.63
47913;BME280;33676;51.006;17.180;2022-11-15T14:28:28;99806.99;;;15.53;86.45
47913;BME280;33676;51.006;17.180;2022-11-15T14:31:00;99807.89;;;15.31;86.57
47913;BME280;33676;51.006;17.180;2022-11-15T14:33:34;99811.56;;;15.14;86.53
47913;BME280;33676;51.006;17.180;2022-11-15T14:38:38;99813.17;;;14.84;86.86
47913;BME280;33676;51.006;17.180;2022-11-15T14:41:22;99811.09;;;14.70;86.98
47913;BME280;33676;51.006;17.180;2022-11-15T14:43:52;99806.05;;;14.54;86.97
47913;BME280;33676;51.006;17.180;2022-11-15T14:46:20;99803.97;;;14.40;87.01
47913;BME280;33676;51.006;17.180;2022-11-15T14:48:49;99796.03;;;14.25;86.85
47913;BME280;33676;51.006;17.180;2022-11-15T14:51:18;99793.23;;;14.05;86.79
47913;BME280;33676;51.006;17.180;2022-11-15T14:53:47;99786.86;;;13.87;86.75
47913;BME280;33676;51.006;17.180;2022-11-15T14:56:15;99783.64;;;13.68;86.61
47913;BME280;33676;51.006;17.180;2022-11-15T14:58:44;99785.63;;;13.50;86.77
47913;BME280;33676;51.006;17.180;2022-11-15T15:01:23;99785.08;;;13.34;87.11
47913;BME280;33676;51.006;17.180;2022-11-15T15:03:53;99780.34;;;13.17;87.40
47913;BME280;33676;51.006;17.180;2022-11-15T15:06:26;99777.69;;;13.01;87.55
47913;BME280;33676;51.006;17.180;2022-11-15T15:08:54;99777.11;;;12.85;87.63
47913;BME280;33676;51.006;17.180;2022-11-15T15:11:27;99782.02;;;12.71;87.90
47913;BME280;33676;51.006;17.180;2022-11-15T15:13:56;99783.26;;;12.59;88.42
47913;BME280;33676;51.006;17.180;2022-11-15T15:16:27;99778.90;;;12.48;88.56
47913;BME280;33676;51.006;17.180;2022-11-15T15:18:55;99776.77;;;12.36;88.67
47913;BME280;33676;51.006;17.180;2022-11-15T15:21:26;99778.79;;;12.23;88.77
47913;BME280;33676;51.006;17.180;2022-11-15T15:24:04;99776.90;;;12.10;88.94